Terminal Aerodrome Forecast
Issued by NWS

Home | Current Version | Previous Version | Text Only | Print | Product List | Glossary On
Versions: 1 2 3 4 5 6 7 8 9 10 11 12 13 14 15 16 17
000
FTUS45 KABQ 040539
TAFAEG
TAF
KAEG 040539Z 0406/0506 32006KT P6SM SKC
     FM042000 29009KT P6SM SCT120
     FM050500 33006KT P6SM FEW120=

USA.gov is the U.S. government's official web portal to all federal, state and local government web resources and services.